sensor_id;sensor_type;location;lat;lon;timestamp;pressure;altitude;pressure_sealevel;temperature;humidity
60337;BME280;46978;50.288;28.624;2023-03-15T02:59:11;98024.70;;;1.42;46.31
60337;BME280;46978;50.288;28.624;2023-03-15T03:00:13;98033.27;;;1.32;46.30
60337;BME280;46978;50.288;28.624;2023-03-15T03:01:16;98028.13;;;1.33;46.32
60337;BME280;46978;50.288;28.624;2023-03-15T03:02:18;98032.39;;;1.33;46.52
60337;BME280;46978;50.288;28.624;2023-03-15T03:03:20;98030.68;;;1.33;46.43
60337;BME280;46978;50.288;28.624;2023-03-15T03:04:22;98029.84;;;1.33;46.24
60337;BME280;46978;50.288;28.624;2023-03-15T03:05:23;98032.39;;;1.34;46.40
60337;BME280;46978;50.288;28.624;2023-03-15T03:06:25;98033.23;;;1.36;46.62
60337;BME280;46978;50.288;28.624;2023-03-15T03:07:27;98037.50;;;1.36;46.39
60337;BME280;46978;50.288;28.624;2023-03-15T03:08:28;98030.67;;;1.36;46.54
60337;BME280;46978;50.288;28.624;2023-03-15T03:09:30;98038.34;;;1.38;46.53
60337;BME280;46978;50.288;28.624;2023-03-15T03:10:32;98028.98;;;1.38;46.45
60337;BME280;46978;50.288;28.624;2023-03-15T03:11:33;98033.22;;;1.41;46.29
60337;BME280;46978;50.288;28.624;2023-03-15T03:12:35;98033.21;;;1.42;46.14
60337;BME280;46978;50.288;28.624;2023-03-15T03:13:37;98034.08;;;1.45;46.18
60337;BME280;46978;50.288;28.624;2023-03-15T03:14:38;98036.63;;;1.46;46.23
60337;BME280;46978;50.288;28.624;2023-03-15T03:15:40;98032.35;;;1.48;46.32
60337;BME280;46978;50.288;28.624;2023-03-15T03:17:47;98032.34;;;1.50;46.41
60337;BME280;46978;50.288;28.624;2023-03-15T03:18:49;98034.91;;;1.50;46.41
60337;BME280;46978;50.288;28.624;2023-03-15T03:19:50;98032.34;;;1.50;46.13
60337;BME280;46978;50.288;28.624;2023-03-15T03:20:56;98027.23;;;1.50;46.15
60337;BME280;46978;50.288;28.624;2023-03-15T03:21:58;98038.30;;;1.52;46.39
60337;BME280;46978;50.288;28.624;2023-03-15T03:23:00;98024.67;;;1.51;46.26
60337;BME280;46978;50.288;28.624;2023-03-15T03:24:02;98022.13;;;1.50;46.43
60337;BME280;46978;50.288;28.624;2023-03-15T03:25:05;98039.16;;;1.52;46.30
60337;BME280;46978;50.288;28.624;2023-03-15T03:26:13;98025.51;;;1.53;46.33
60337;BME280;46978;50.288;28.624;2023-03-15T03:27:15;98033.17;;;1.53;46.14
60337;BME280;46978;50.288;28.624;2023-03-15T03:28:17;98031.49;;;1.54;46.13
60337;BME280;46978;50.288;28.624;2023-03-15T03:29:19;98026.37;;;1.54;46.21
60337;BME280;46978;50.288;28.624;2023-03-15T03:30:22;98024.67;;;1.53;46.42
60337;BME280;46978;50.288;28.624;2023-03-15T03:31:27;98032.34;;;1.53;46.24
60337;BME280;46978;50.288;28.624;2023-03-15T03:32:29;98022.95;;;1.52;46.31
60337;BME280;46978;50.288;28.624;2023-03-15T03:33:30;98012.74;;;1.49;46.32
60337;BME280;46978;50.288;28.624;2023-03-15T03:34:32;98012.74;;;1.49;46.32
60337;BME280;46978;50.288;28.624;2023-03-15T03:35:34;98017.84;;;1.50;46.11
60337;BME280;46978;50.288;28.624;2023-03-15T03:36:35;98015.29;;;1.50;46.39
60337;BME280;46978;50.288;28.624;2023-03-15T03:37:37;98018.73;;;1.49;46.07
60337;BME280;46978;50.288;28.624;2023-03-15T03:38:40;98015.30;;;1.49;46.42
60337;BME280;46978;50.288;28.624;2023-03-15T03:39:42;98016.17;;;1.49;46.35
60337;BME280;46978;50.288;28.624;2023-03-15T03:40:44;98009.34;;;1.48;46.29
60337;BME280;46978;50.288;28.624;2023-03-15T03:41:46;98012.74;;;1.49;46.44
60337;BME280;46978;50.288;28.624;2023-03-15T03:42:48;98008.50;;;1.48;46.38
60337;BME280;46978;50.288;28.624;2023-03-15T03:43:50;98009.35;;;1.47;46.47
60337;BME280;46978;50.288;28.624;2023-03-15T03:44:52;98012.76;;;1.44;46.47
60337;BME280;46978;50.288;28.624;2023-03-15T03:45:53;98012.76;;;1.44;46.47
60337;BME280;46978;50.288;28.624;2023-03-15T03:46:55;98005.97;;;1.43;46.67
60337;BME280;46978;50.288;28.624;2023-03-15T03:47:57;98005.97;;;1.43;46.45
60337;BME280;46978;50.288;28.624;2023-03-15T03:48:59;98004.25;;;1.42;46.57
60337;BME280;46978;50.288;28.624;2023-03-15T03:50:00;98008.52;;;1.41;46.49
60337;BME280;46978;50.288;28.624;2023-03-15T03:51:02;98002.55;;;1.41;46.33
60337;BME280;46978;50.288;28.624;2023-03-15T03:52:05;97999.98;;;1.41;46.38
60337;BME280;46978;50.288;28.624;2023-03-15T03:53:07;97999.15;;;1.40;46.37
60337;BME280;46978;50.288;28.624;2023-03-15T03:54:08;98005.10;;;1.39;46.54
60337;BME280;46978;50.288;28.624;2023-03-15T03:55:11;98005.98;;;1.38;46.60
60337;BME280;46978;50.288;28.624;2023-03-15T03:56:13;97998.31;;;1.37;46.57
60337;BME280;46978;50.288;28.624;2023-03-15T03:57:14;98009.39;;;1.36;46.79
60337;BME280;46978;50.288;28.624;2023-03-15T03:58:16;98010.23;;;1.35;46.67
60337;BME280;46978;50.288;28.624;2023-03-15T03:59:18;98008.55;;;1.34;46.79
60337;BME280;46978;50.288;28.624;2023-03-15T04:00:20;98003.45;;;1.32;46.95
60337;BME280;46978;50.288;28.624;2023-03-15T04:01:22;98011.95;;;1.31;46.97
60337;BME280;46978;50.288;28.624;2023-03-15T04:02:24;98004.30;;;1.30;47.04
60337;BME280;46978;50.288;28.624;2023-03-15T04:03:25;98006.02;;;1.28;46.91
60337;BME280;46978;50.288;28.624;2023-03-15T04:04:27;98009.41;;;1.28;46.96
60337;BME280;46978;50.288;28.624;2023-03-15T04:05:29;98006.86;;;1.25;47.15
60337;BME280;46978;50.288;28.624;2023-03-15T04:06:30;98011.13;;;1.24;47.28
60337;BME280;46978;50.288;28.624;2023-03-15T04:07:32;98009.42;;;1.23;46.85
60337;BME280;46978;50.288;28.624;2023-03-15T04:08:34;98009.42;;;1.23;46.85
60337;BME280;46978;50.288;28.624;2023-03-15T04:09:36;98003.47;;;1.24;47.02
60337;BME280;46978;50.288;28.624;2023-03-15T04:10:39;98007.73;;;1.25;46.91
60337;BME280;46978;50.288;28.624;2023-03-15T04:11:41;98002.63;;;1.25;46.83
60337;BME280;46978;50.288;28.624;2023-03-15T04:12:44;98012.84;;;1.25;47.12
60337;BME280;46978;50.288;28.624;2023-03-15T04:13:46;98010.28;;;1.25;46.93
60337;BME280;46978;50.288;28.624;2023-03-15T04:14:48;98017.08;;;1.27;46.82
60337;BME280;46978;50.288;28.624;2023-03-15T04:15:50;98023.06;;;1.27;46.89
60337;BME280;46978;50.288;28.624;2023-03-15T04:16:52;98012.84;;;1.29;46.77
60337;BME280;46978;50.288;28.624;2023-03-15T04:17:54;98014.52;;;1.30;46.95
60337;BME280;46978;50.288;28.624;2023-03-15T04:18:56;98018.78;;;1.31;47.04
60337;BME280;46978;50.288;28.624;2023-03-15T04:19:57;98016.23;;;1.31;46.77
60337;BME280;46978;50.288;28.624;2023-03-15T04:20:59;98023.90;;;1.29;46.91
60337;BME280;46978;50.288;28.624;2023-03-15T04:22:01;98026.45;;;1.31;46.81
60337;BME280;46978;50.288;28.624;2023-03-15T04:23:02;98024.73;;;1.30;46.92
60337;BME280;46978;50.288;28.624;2023-03-15T04:24:04;98023.06;;;1.29;47.02
60337;BME280;46978;50.288;28.624;2023-03-15T04:25:07;98029.01;;;1.29;47.00
60337;BME280;46978;50.288;28.624;2023-03-15T04:26:09;98028.17;;;1.29;47.11
60337;BME280;46978;50.288;28.624;2023-03-15T04:27:11;98024.73;;;1.30;46.76
60337;BME280;46978;50.288;28.624;2023-03-15T04:28:12;98026.45;;;1.31;46.80
60337;BME280;46978;50.288;28.624;2023-03-15T04:29:14;98027.28;;;1.33;47.01
60337;BME280;46978;50.288;28.624;2023-03-15T04:30:16;98030.68;;;1.33;47.00
60337;BME280;46978;50.288;28.624;2023-03-15T04:31:18;98030.68;;;1.33;47.04
60337;BME280;46978;50.288;28.624;2023-03-15T04:32:20;98028.13;;;1.33;47.00
60337;BME280;46978;50.288;28.624;2023-03-15T04:33:21;98034.95;;;1.33;46.89
60337;BME280;46978;50.288;28.624;2023-03-15T04:34:23;98028.13;;;1.33;47.11
60337;BME280;46978;50.288;28.624;2023-03-15T04:35:25;98032.39;;;1.33;47.22
60337;BME280;46978;50.288;28.624;2023-03-15T04:36:28;98028.16;;;1.32;47.23
60337;BME280;46978;50.288;28.624;2023-03-15T04:37:29;98029.00;;;1.32;47.35
60337;BME280;46978;50.288;28.624;2023-03-15T04:38:31;98032.41;;;1.31;47.46
60337;BME280;46978;50.288;28.624;2023-03-15T04:39:33;98035.83;;;1.32;47.59
60337;BME280;46978;50.288;28.624;2023-03-15T04:40:35;98031.56;;;1.31;47.83
60337;BME280;46978;50.288;28.624;2023-03-15T04:41:37;98033.27;;;1.30;47.67
60337;BME280;46978;50.288;28.624;2023-03-15T04:42:38;98029.86;;;1.27;47.87
60337;BME280;46978;50.288;28.624;2023-03-15T04:43:40;98036.68;;;1.28;48.01
60337;BME280;46978;50.288;28.624;2023-03-15T04:44:42;98035.84;;;1.27;48.00
60337;BME280;46978;50.288;28.624;2023-03-15T04:45:44;98029.86;;;1.25;48.22
60337;BME280;46978;50.288;28.624;2023-03-15T04:46:46;98040.08;;;1.25;48.41
60337;BME280;46978;50.288;28.624;2023-03-15T04:47:49;98036.69;;;1.24;48.83
60337;BME280;46978;50.288;28.624;2023-03-15T04:48:50;98028.18;;;1.24;48.65
60337;BME280;46978;50.288;28.624;2023-03-15T04:49:52;98032.42;;;1.23;48.89
60337;BME280;46978;50.288;28.624;2023-03-15T04:50:54;98026.46;;;1.24;48.82
60337;BME280;46978;50.288;28.624;2023-03-15T04:51:55;98029.86;;;1.27;48.95
60337;BME280;46978;50.288;28.624;2023-03-15T04:52:57;98030.72;;;1.29;48.94
60337;BME280;46978;50.288;28.624;2023-03-15T04:53:59;98032.41;;;1.30;48.88
60337;BME280;46978;50.288;28.624;2023-03-15T04:55:01;98029.84;;;1.31;49.15
60337;BME280;46978;50.288;28.624;2023-03-15T04:56:03;98021.34;;;1.31;49.04
60337;BME280;46978;50.288;28.624;2023-03-15T04:57:05;98029.84;;;1.33;49.28
60337;BME280;46978;50.288;28.624;2023-03-15T04:58:06;98026.44;;;1.34;49.10
60337;BME280;46978;50.288;28.624;2023-03-15T04:59:09;98029.83;;;1.36;49.18
60337;BME280;46978;50.288;28.624;2023-03-15T05:00:12;98034.10;;;1.35;49.37
60337;BME280;46978;50.288;28.624;2023-03-15T05:01:14;98034.10;;;1.35;49.39
60337;BME280;46978;50.288;28.624;2023-03-15T05:02:15;98035.78;;;1.35;49.53
60337;BME280;46978;50.288;28.624;2023-03-15T05:03:17;98036.66;;;1.37;49.74
60337;BME280;46978;50.288;28.624;2023-03-15T05:04:18;98040.89;;;1.36;49.80
60337;BME280;46978;50.288;28.624;2023-03-15T05:05:21;98045.16;;;1.36;49.89
60337;BME280;46978;50.288;28.624;2023-03-15T05:06:23;98042.61;;;1.34;49.91
60337;BME280;46978;50.288;28.624;2023-03-15T05:07:25;98037.50;;;1.36;49.94
60337;BME280;46978;50.288;28.624;2023-03-15T05:08:26;98040.05;;;1.36;50.14
60337;BME280;46978;50.288;28.624;2023-03-15T05:09:28;98044.33;;;1.35;50.20
60337;BME280;46978;50.288;28.624;2023-03-15T05:10:30;98040.05;;;1.36;50.38
60337;BME280;46978;50.288;28.624;2023-03-15T05:11:32;98036.66;;;1.37;50.59
60337;BME280;46978;50.288;28.624;2023-03-15T05:12:33;98040.05;;;1.37;50.71
60337;BME280;46978;50.288;28.624;2023-03-15T05:13:35;98040.89;;;1.39;50.54
60337;BME280;46978;50.288;28.624;2023-03-15T05:14:37;98039.20;;;1.41;50.80
60337;BME280;46978;50.288;28.624;2023-03-15T05:15:39;98040.88;;;1.44;50.82
60337;BME280;46978;50.288;28.624;2023-03-15T05:16:40;98043.42;;;1.46;50.88
60337;BME280;46978;50.288;28.624;2023-03-15T05:17:42;98045.97;;;1.49;50.71
60337;BME280;46978;50.288;28.624;2023-03-15T05:18:44;98051.08;;;1.52;50.83
60337;BME280;46978;50.288;28.624;2023-03-15T05:19:45;98051.06;;;1.56;50.80
60337;BME280;46978;50.288;28.624;2023-03-15T05:20:47;98045.94;;;1.59;50.74
60337;BME280;46978;50.288;28.624;2023-03-15T05:21:49;98052.75;;;1.64;51.00
60337;BME280;46978;50.288;28.624;2023-03-15T05:22:51;98052.73;;;1.70;51.00
60337;BME280;46978;50.288;28.624;2023-03-15T05:23:52;98047.60;;;1.74;50.96
60337;BME280;46978;50.288;28.624;2023-03-15T05:24:54;98050.98;;;1.79;51.13
60337;BME280;46978;50.288;28.624;2023-03-15T05:25:55;98044.16;;;1.85;51.11
60337;BME280;46978;50.288;28.624;2023-03-15T05:26:57;98046.69;;;1.89;50.96
60337;BME280;46978;50.288;28.624;2023-03-15T05:27:59;98042.39;;;1.96;51.18
60337;BME280;46978;50.288;28.624;2023-03-15T05:29:00;98046.64;;;2.02;51.11
60337;BME280;46978;50.288;28.624;2023-03-15T05:30:03;98050.84;;;2.09;50.83
60337;BME280;46978;50.288;28.624;2023-03-15T05:31:05;98053.37;;;2.15;51.16
60337;BME280;46978;50.288;28.624;2023-03-15T05:32:06;98044.80;;;2.22;50.87
60337;BME280;46978;50.288;28.624;2023-03-15T05:33:08;98045.59;;;2.32;50.83
60337;BME280;46978;50.288;28.624;2023-03-15T05:34:10;98050.66;;;2.40;50.64
60337;BME280;46978;50.288;28.624;2023-03-15T05:35:12;98044.65;;;2.47;50.69
60337;BME280;46978;50.288;28.624;2023-03-15T05:36:14;98048.88;;;2.54;50.85
60337;BME280;46978;50.288;28.624;2023-03-15T05:37:15;98051.38;;;2.63;50.84
60337;BME280;46978;50.288;28.624;2023-03-15T05:38:17;98049.60;;;2.70;50.84
60337;BME280;46978;50.288;28.624;2023-03-15T05:39:19;98047.01;;;2.75;50.78
60337;BME280;46978;50.288;28.624;2023-03-15T05:40:21;98042.67;;;2.81;50.79
60337;BME280;46978;50.288;28.624;2023-03-15T05:41:22;98049.44;;;2.90;50.76
60337;BME280;46978;50.288;28.624;2023-03-15T05:42:24;98049.39;;;2.96;50.61
60337;BME280;46978;50.288;28.624;2023-03-15T05:43:26;98039.03;;;3.09;50.58
60337;BME280;46978;50.288;28.624;2023-03-15T05:44:27;98039.03;;;3.09;50.58
60337;BME280;46978;50.288;28.624;2023-03-15T05:45:29;98049.20;;;3.16;50.86
60337;BME280;46978;50.288;28.624;2023-03-15T05:48:15;98053.42;;;3.20;50.64
60337;BME280;46978;50.288;28.624;2023-03-15T05:49:17;98051.71;;;3.22;50.88
60337;BME280;46978;50.288;28.624;2023-03-15T05:50:18;98042.30;;;3.23;51.00
60337;BME280;46978;50.288;28.624;2023-03-15T05:51:20;98050.81;;;3.25;50.97
60337;BME280;46978;50.288;28.624;2023-03-15T05:52:22;98049.13;;;3.24;51.13
60337;BME280;46978;50.288;28.624;2023-03-15T05:53:23;98054.27;;;3.24;51.30
60337;BME280;46978;50.288;28.624;2023-03-15T05:54:25;98056.85;;;3.21;51.19
60337;BME280;46978;50.288;28.624;2023-03-15T05:55:27;98050.03;;;3.18;51.53
60337;BME280;46978;50.288;28.624;2023-03-15T05:56:28;98050.05;;;3.17;51.45
60337;BME280;46978;50.288;28.624;2023-03-15T05:57:30;98056.03;;;3.16;51.86
60337;BME280;46978;50.288;28.624;2023-03-15T05:58:32;98050.09;;;3.12;52.00
60337;BME280;46978;50.288;28.624;2023-03-15T05:59:34;98056.97;;;3.09;51.95
60337;BME280;46978;50.288;28.624;2023-03-15T06:00:36;98054.42;;;3.07;51.98
60337;BME280;46978;50.288;28.624;2023-03-15T06:01:38;98056.11;;;3.07;52.11
60337;BME280;46978;50.288;28.624;2023-03-15T06:02:40;98072.37;;;3.05;52.22
60337;BME280;46978;50.288;28.624;2023-03-15T06:03:42;98062.97;;;3.04;52.36
60337;BME280;46978;50.288;28.624;2023-03-15T06:04:44;98069.81;;;3.05;52.38
60337;BME280;46978;50.288;28.624;2023-03-15T06:05:46;98074.92;;;3.07;52.38
60337;BME280;46978;50.288;28.624;2023-03-15T06:06:48;98076.59;;;3.08;52.60
60337;BME280;46978;50.288;28.624;2023-03-15T06:07:49;98072.36;;;3.07;53.07
60337;BME280;46978;50.288;28.624;2023-03-15T06:08:51;98080.87;;;3.09;53.14
60337;BME280;46978;50.288;28.624;2023-03-15T06:09:52;98082.58;;;3.10;52.91
60337;BME280;46978;50.288;28.624;2023-03-15T06:10:55;98084.27;;;3.11;53.46
60337;BME280;46978;50.288;28.624;2023-03-15T06:11:56;98090.27;;;3.10;53.83
60337;BME280;46978;50.288;28.624;2023-03-15T06:12:58;98085.13;;;3.12;53.72
60337;BME280;46978;50.288;28.624;2023-03-15T06:14:00;98075.72;;;3.12;54.39
60337;BME280;46978;50.288;28.624;2023-03-15T06:15:02;98084.25;;;3.13;54.53
60337;BME280;46978;50.288;28.624;2023-03-15T06:16:04;98084.27;;;3.10;54.61
60337;BME280;46978;50.288;28.624;2023-03-15T06:17:06;98080.03;;;3.09;54.77
60337;BME280;46978;50.288;28.624;2023-03-15T06:18:08;98080.03;;;3.09;54.79
60337;BME280;46978;50.288;28.624;2023-03-15T06:19:09;98084.27;;;3.10;54.91
60337;BME280;46978;50.288;28.624;2023-03-15T06:20:12;98094.55;;;3.07;55.46
60337;BME280;46978;50.288;28.624;2023-03-15T06:21:14;98089.44;;;3.05;55.91
60337;BME280;46978;50.288;28.624;2023-03-15T06:22:15;98098.83;;;3.08;55.83
60337;BME280;46978;50.288;28.624;2023-03-15T06:23:17;98086.00;;;3.09;55.91
60337;BME280;46978;50.288;28.624;2023-03-15T06:24:19;98095.39;;;3.12;55.92
60337;BME280;46978;50.288;28.624;2023-03-15T06:25:21;98096.21;;;3.14;56.08
60337;BME280;46978;50.288;28.624;2023-03-15T06:26:22;98098.75;;;3.17;56.12
60337;BME280;46978;50.288;28.624;2023-03-15T06:27:24;98091.88;;;3.20;56.17
60337;BME280;46978;50.288;28.624;2023-03-15T06:28:26;98092.73;;;3.22;56.67
60337;BME280;46978;50.288;28.624;2023-03-15T06:29:27;98090.98;;;3.25;56.91
60337;BME280;46978;50.288;28.624;2023-03-15T06:30:29;98094.36;;;3.28;56.82
60337;BME280;46978;50.288;28.624;2023-03-15T06:31:31;98093.48;;;3.32;56.75
60337;BME280;46978;50.288;28.624;2023-03-15T06:32:33;98087.45;;;3.38;56.84
60337;BME280;46978;50.288;28.624;2023-03-15T06:33:34;98084.88;;;3.39;56.81
60337;BME280;46978;50.288;28.624;2023-03-15T06:34:36;98089.12;;;3.40;57.18
60337;BME280;46978;50.288;28.624;2023-03-15T06:35:38;98078.81;;;3.45;56.98
60337;BME280;46978;50.288;28.624;2023-03-15T06:36:40;98088.17;;;3.51;57.19
60337;BME280;46978;50.288;28.624;2023-03-15T06:37:42;98088.97;;;3.56;57.03
60337;BME280;46978;50.288;28.624;2023-03-15T06:38:44;98083.72;;;3.67;56.83
60337;BME280;46978;50.288;28.624;2023-03-15T06:39:46;98083.72;;;3.67;56.83
60337;BME280;46978;50.288;28.624;2023-03-15T06:40:48;98081.92;;;3.76;56.83
60337;BME280;46978;50.288;28.624;2023-03-15T06:41:50;98085.25;;;3.83;57.00
60337;BME280;46978;50.288;28.624;2023-03-15T06:42:52;98077.55;;;3.83;57.19
60337;BME280;46978;50.288;28.624;2023-03-15T06:43:54;98079.23;;;3.87;57.06
60337;BME280;46978;50.288;28.624;2023-03-15T06:44:56;98068.88;;;3.95;56.88
60337;BME280;46978;50.288;28.624;2023-03-15T06:45:58;98062.79;;;4.01;56.96
60337;BME280;46978;50.288;28.624;2023-03-15T06:47:00;98069.59;;;4.05;56.85
60337;BME280;46978;50.288;28.624;2023-03-15T06:48:02;98073.00;;;4.05;56.96
60337;BME280;46978;50.288;28.624;2023-03-15T06:49:03;98077.20;;;4.12;56.88
60337;BME280;46978;50.288;28.624;2023-03-15T06:50:06;98068.52;;;4.20;56.87
60337;BME280;46978;50.288;28.624;2023-03-15T06:51:08;98073.53;;;4.29;56.77
60337;BME280;46978;50.288;28.624;2023-03-15T06:52:10;98075.12;;;4.39;56.52
60337;BME280;46978;50.288;28.624;2023-03-15T06:53:12;98081.00;;;4.46;56.49
60337;BME280;46978;50.288;28.624;2023-03-15T06:54:14;98076.66;;;4.53;56.27
60337;BME280;46978;50.288;28.624;2023-03-15T06:55:16;98079.16;;;4.57;56.32
60337;BME280;46978;50.288;28.624;2023-03-15T06:56:17;98078.19;;;4.63;56.18
60337;BME280;46978;50.288;28.624;2023-03-15T06:57:19;98078.09;;;4.69;56.22
60337;BME280;46978;50.288;28.624;2023-03-15T06:58:21;98079.72;;;4.76;55.81
60337;BME280;46978;50.288;28.624;2023-03-15T06:59:23;98080.45;;;4.83;55.77
60337;BME280;46978;50.288;28.624;2023-03-15T07:00:26;98080.36;;;4.89;55.73
60337;BME280;46978;50.288;28.624;2023-03-15T07:01:28;98078.54;;;4.97;55.55
60337;BME280;46978;50.288;28.624;2023-03-15T07:02:30;98076.62;;;5.09;55.21
60337;BME280;46978;50.288;28.624;2023-03-15T07:03:32;98073.12;;;5.14;55.04
60337;BME280;46978;50.288;28.624;2023-03-15T07:04:33;98069.59;;;5.18;54.85
60337;BME280;46978;50.288;28.624;2023-03-15T07:05:35;98074.63;;;5.25;54.55
60337;BME280;46978;50.288;28.624;2023-03-15T07:06:37;98077.12;;;5.29;54.55
60337;BME280;46978;50.288;28.624;2023-03-15T07:07:39;98071.06;;;5.33;54.27
60337;BME280;46978;50.288;28.624;2023-03-15T07:08:41;98076.96;;;5.38;54.21
60337;BME280;46978;50.288;28.624;2023-03-15T07:09:43;98072.57;;;5.44;54.28
60337;BME280;46978;50.288;28.624;2023-03-15T07:10:45;98073.38;;;5.47;53.64
60337;BME280;46978;50.288;28.624;2023-03-15T07:11:47;98078.45;;;5.52;53.74
60337;BME280;46978;50.288;28.624;2023-03-15T07:12:48;98077.48;;;5.56;53.63
60337;BME280;46978;50.288;28.624;2023-03-15T07:13:50;98069.02;;;5.51;53.49
60337;BME280;46978;50.288;28.624;2023-03-15T07:14:54;98068.97;;;5.54;53.53
60337;BME280;46978;50.288;28.624;2023-03-15T07:15:56;98073.97;;;5.62;53.46
60337;BME280;46978;50.288;28.624;2023-03-15T07:16:58;98074.72;;;5.67;53.34
60337;BME280;46978;50.288;28.624;2023-03-15T07:18:00;98071.27;;;5.68;53.10
60337;BME280;46978;50.288;28.624;2023-03-15T07:19:02;98075.61;;;5.66;53.15
60337;BME280;46978;50.288;28.624;2023-03-15T07:20:04;98073.04;;;5.66;52.80
60337;BME280;46978;50.288;28.624;2023-03-15T07:21:06;98083.33;;;5.66;52.60
60337;BME280;46978;50.288;28.624;2023-03-15T07:22:08;98073.09;;;5.63;52.52
60337;BME280;46978;50.288;28.624;2023-03-15T07:23:10;98079.08;;;5.63;52.79
60337;BME280;46978;50.288;28.624;2023-03-15T07:24:12;98076.54;;;5.62;52.89
60337;BME280;46978;50.288;28.624;2023-03-15T07:25:14;98072.31;;;5.57;53.00
60337;BME280;46978;50.288;28.624;2023-03-15T07:26:16;98077.52;;;5.54;52.94
60337;BME280;46978;50.288;28.624;2023-03-15T07:27:17;98079.34;;;5.49;53.10
60337;BME280;46978;50.288;28.624;2023-03-15T07:28:20;98069.02;;;5.51;53.14
60337;BME280;46978;50.288;28.624;2023-03-15T07:29:23;98067.28;;;5.51;52.89
60337;BME280;46978;50.288;28.624;2023-03-15T07:30:25;98067.34;;;5.48;52.97
60337;BME280;46978;50.288;28.624;2023-03-15T07:31:26;98071.63;;;5.49;53.18
60337;BME280;46978;50.288;28.624;2023-03-15T07:32:28;98074.19;;;5.49;53.08
60337;BME280;46978;50.288;28.624;2023-03-15T07:33:31;98072.52;;;5.47;52.92
60337;BME280;46978;50.288;28.624;2023-03-15T07:34:33;98071.70;;;5.45;53.14
60337;BME280;46978;50.288;28.624;2023-03-15T07:35:34;98062.28;;;5.44;53.14
60337;BME280;46978;50.288;28.624;2023-03-15T07:36:36;98071.63;;;5.49;53.05
60337;BME280;46978;50.288;28.624;2023-03-15T07:37:38;98069.83;;;5.53;53.04
60337;BME280;46978;50.288;28.624;2023-03-15T07:38:40;98071.53;;;5.54;52.92
60337;BME280;46978;50.288;28.624;2023-03-15T07:39:41;98068.97;;;5.54;52.96
60337;BME280;46978;50.288;28.624;2023-03-15T07:40:43;98070.61;;;5.58;52.91
60337;BME280;46978;50.288;28.624;2023-03-15T07:41:45;98076.54;;;5.62;52.82
60337;BME280;46978;50.288;28.624;2023-03-15T07:42:46;98078.24;;;5.63;52.75
60337;BME280;46978;50.288;28.624;2023-03-15T07:43:48;98074.80;;;5.62;52.51
60337;BME280;46978;50.288;28.624;2023-03-15T07:44:50;98069.59;;;5.65;52.58
60337;BME280;46978;50.288;28.624;2023-03-15T07:45:51;98060.92;;;5.71;52.62
60337;BME280;46978;50.288;28.624;2023-03-15T07:46:53;98059.06;;;5.78;52.65
60337;BME280;46978;50.288;28.624;2023-03-15T07:47:55;98058.97;;;5.82;52.59
60337;BME280;46978;50.288;28.624;2023-03-15T07:48:56;98058.82;;;5.90;52.40
60337;BME280;46978;50.288;28.624;2023-03-15T07:49:58;98054.34;;;6.01;52.30
60337;BME280;46978;50.288;28.624;2023-03-15T07:51:00;98058.50;;;6.07;51.87
60337;BME280;46978;50.288;28.624;2023-03-15T07:52:02;98061.72;;;6.18;51.96
60337;BME280;46978;50.288;28.624;2023-03-15T07:53:04;98063.23;;;6.27;51.73
60337;BME280;46978;50.288;28.624;2023-03-15T07:54:06;98069.98;;;6.33;51.41
60337;BME280;46978;50.288;28.624;2023-03-15T07:55:08;98064.56;;;6.45;51.24
60337;BME280;46978;50.288;28.624;2023-03-15T07:56:10;98067.00;;;6.51;50.92
60337;BME280;46978;50.288;28.624;2023-03-15T07:57:12;98071.15;;;6.58;51.01
60337;BME280;46978;50.288;28.624;2023-03-15T07:58:14;98074.28;;;6.71;50.60
60337;BME280;46978;50.288;28.624;2023-03-15T07:59:18;98072.43;;;6.76;50.39
60337;BME280;46978;50.288;28.624;2023-03-15T08:00:21;98068.84;;;6.84;50.12
60337;BME280;46978;50.288;28.624;2023-03-15T08:01:25;98058.45;;;6.87;49.79
60337;BME280;46978;50.288;28.624;2023-03-15T08:02:27;98064.41;;;6.89;49.76
60337;BME280;46978;50.288;28.624;2023-03-15T08:03:33;98060.16;;;6.86;49.38
60337;BME280;46978;50.288;28.624;2023-03-15T08:04:37;98062.63;;;6.91;49.21
60337;BME280;46978;50.288;28.624;2023-03-15T08:05:38;98058.98;;;6.99;48.72
60337;BME280;46978;50.288;28.624;2023-03-15T08:06:40;98065.84;;;7.00;48.41
60337;BME280;46978;50.288;28.624;2023-03-15T08:07:42;98060.61;;;7.04;48.52
60337;BME280;46978;50.288;28.624;2023-03-15T08:08:43;98069.11;;;7.07;48.35
60337;BME280;46978;50.288;28.624;2023-03-15T08:09:45;98058.83;;;7.06;48.24
60337;BME280;46978;50.288;28.624;2023-03-15T08:10:49;98061.45;;;7.04;48.10
60337;BME280;46978;50.288;28.624;2023-03-15T08:11:52;98061.34;;;7.09;48.06
60337;BME280;46978;50.288;28.624;2023-03-15T08:12:54;98058.64;;;7.13;47.66
60337;BME280;46978;50.288;28.624;2023-03-15T08:13:56;98051.66;;;7.17;47.49
60337;BME280;46978;50.288;28.624;2023-03-15T08:14:58;98067.89;;;7.22;46.59
60337;BME280;46978;50.288;28.624;2023-03-15T08:16:03;98061.55;;;7.34;46.65
60337;BME280;46978;50.288;28.624;2023-03-15T08:17:08;98074.09;;;7.48;46.46
60337;BME280;46978;50.288;28.624;2023-03-15T08:18:10;98071.27;;;7.57;46.05
60337;BME280;46978;50.288;28.624;2023-03-15T08:19:15;98072.80;;;7.64;45.25
60337;BME280;46978;50.288;28.624;2023-03-15T08:20:18;98068.18;;;7.76;44.72
60337;BME280;46978;50.288;28.624;2023-03-15T08:21:20;98070.51;;;7.85;45.35
60337;BME280;46978;50.288;28.624;2023-03-15T08:22:23;98065.87;;;7.96;44.94
60337;BME280;46978;50.288;28.624;2023-03-15T08:23:25;98066.39;;;8.09;44.83
60337;BME280;46978;50.288;28.624;2023-03-15T08:24:27;98061.80;;;8.19;43.81
60337;BME280;46978;50.288;28.624;2023-03-15T08:25:29;98063.18;;;8.31;43.82
60337;BME280;46978;50.288;28.624;2023-03-15T08:26:34;98064.52;;;8.44;43.85
60337;BME280;46978;50.288;28.624;2023-03-15T08:27:37;98064.09;;;8.58;43.01
60337;BME280;46978;50.288;28.624;2023-03-15T08:28:38;98064.09;;;8.58;43.02
60337;BME280;46978;50.288;28.624;2023-03-15T08:29:40;98070.92;;;8.60;42.87